Terminal Aerodrome Forecast
Issued by NWS

Home | Current Version | Previous Version | Text Only | Print | Product List | Glossary On
Versions: 1 2 3 4 5 6 7 8 9 10 11 12 13 14 15
709
FTUS42 KTBW 212337
TAFPIE
TAF
KPIE 212337Z 2200/2224 VRB04KT P6SM SCT050 BKN250
     FM221500 17005KT P6SM VCTS SCT025CB BKN250
     FM222000 25007KT P6SM VCTS OVC050CB=

USA.gov is the U.S. government's official web portal to all federal, state and local government web resources and services.